sensor_id;sensor_type;location;lat;lon;timestamp;temperature;humidity
19483;DHT22;9882;51.166;6.992;2022-09-29T04:02:10;9.20;99.90
19483;DHT22;9882;51.166;6.992;2022-09-29T04:04:38;9.20;99.90
19483;DHT22;9882;51.166;6.992;2022-09-29T04:07:07;9.20;99.90
19483;DHT22;9882;51.166;6.992;2022-09-29T04:09:36;9.10;99.90
19483;DHT22;9882;51.166;6.992;2022-09-29T04:12:04;9.10;99.90
19483;DHT22;9882;51.166;6.992;2022-09-29T04:35:07;9.00;99.90
19483;DHT22;9882;51.166;6.992;2022-09-29T04:37:36;9.00;99.90
19483;DHT22;9882;51.166;6.992;2022-09-29T04:40:06;9.00;99.90
19483;DHT22;9882;51.166;6.992;2022-09-29T04:42:35;9.00;99.90
19483;DHT22;9882;51.166;6.992;2022-09-29T04:45:04;9.00;99.90
19483;DHT22;9882;51.166;6.992;2022-09-29T05:39:40;8.60;99.90
19483;DHT22;9882;51.166;6.992;2022-09-29T05:42:10;8.60;99.90
19483;DHT22;9882;51.166;6.992;2022-09-29T05:44:40;8.60;99.90
19483;DHT22;9882;51.166;6.992;2022-09-29T05:47:08;8.70;99.90
19483;DHT22;9882;51.166;6.992;2022-09-29T05:49:37;8.60;99.90
19483;DHT22;9882;51.166;6.992;2022-09-29T05:52:05;8.60;99.90
19483;DHT22;9882;51.166;6.992;2022-09-29T05:54:34;8.60;99.90
19483;DHT22;9882;51.166;6.992;2022-09-29T05:57:04;8.60;99.90
19483;DHT22;9882;51.166;6.992;2022-09-29T05:59:33;8.60;99.90
19483;DHT22;9882;51.166;6.992;2022-09-29T06:02:01;8.60;99.90
19483;DHT22;9882;51.166;6.992;2022-09-29T06:04:30;8.60;99.90
19483;DHT22;9882;51.166;6.992;2022-09-29T06:07:01;8.60;99.90
19483;DHT22;9882;51.166;6.992;2022-09-29T06:09:32;8.60;99.90
19483;DHT22;9882;51.166;6.992;2022-09-29T06:12:04;8.60;99.90
19483;DHT22;9882;51.166;6.992;2022-09-29T06:14:32;8.60;99.90
19483;DHT22;9882;51.166;6.992;2022-09-29T06:17:01;8.60;99.90
19483;DHT22;9882;51.166;6.992;2022-09-29T06:19:29;8.60;99.90
19483;DHT22;9882;51.166;6.992;2022-09-29T06:21:58;8.60;99.90
19483;DHT22;9882;51.166;6.992;2022-09-29T06:24:27;8.50;99.90
19483;DHT22;9882;51.166;6.992;2022-09-29T06:26:56;8.50;99.90
19483;DHT22;9882;51.166;6.992;2022-09-29T06:29:26;8.50;99.90
19483;DHT22;9882;51.166;6.992;2022-09-29T06:31:55;8.50;99.90
19483;DHT22;9882;51.166;6.992;2022-09-29T06:34:23;8.60;99.90
19483;DHT22;9882;51.166;6.992;2022-09-29T06:36:52;8.50;99.90
19483;DHT22;9882;51.166;6.992;2022-09-29T06:39:38;8.50;99.90
19483;DHT22;9882;51.166;6.992;2022-09-29T06:42:07;8.40;99.90
19483;DHT22;9882;51.166;6.992;2022-09-29T06:44:37;8.50;99.90
19483;DHT22;9882;51.166;6.992;2022-09-29T06:47:06;8.40;99.90
19483;DHT22;9882;51.166;6.992;2022-09-29T06:49:35;8.50;99.90
19483;DHT22;9882;51.166;6.992;2022-09-29T06:52:03;8.40;99.90
19483;DHT22;9882;51.166;6.992;2022-09-29T06:54:41;8.40;99.90
19483;DHT22;9882;51.166;6.992;2022-09-29T06:57:09;8.40;99.90
19483;DHT22;9882;51.166;6.992;2022-09-29T06:59:39;8.40;99.90
19483;DHT22;9882;51.166;6.992;2022-09-29T07:02:08;8.30;99.90
19483;DHT22;9882;51.166;6.992;2022-09-29T07:04:37;8.30;99.90
19483;DHT22;9882;51.166;6.992;2022-09-29T07:07:06;8.40;99.90
19483;DHT22;9882;51.166;6.992;2022-09-29T07:09:34;8.40;99.90
19483;DHT22;9882;51.166;6.992;2022-09-29T07:12:03;8.40;99.90
19483;DHT22;9882;51.166;6.992;2022-09-29T07:14:32;8.30;99.90
19483;DHT22;9882;51.166;6.992;2022-09-29T07:17:02;8.20;99.90
19483;DHT22;9882;51.166;6.992;2022-09-29T07:19:30;8.30;99.90
19483;DHT22;9882;51.166;6.992;2022-09-29T07:21:59;8.30;99.90
19483;DHT22;9882;51.166;6.992;2022-09-29T07:24:28;8.30;99.90
19483;DHT22;9882;51.166;6.992;2022-09-29T07:26:56;8.30;99.90
19483;DHT22;9882;51.166;6.992;2022-09-29T07:29:25;8.30;99.90
19483;DHT22;9882;51.166;6.992;2022-09-29T07:31:53;8.20;99.90
19483;DHT22;9882;51.166;6.992;2022-09-29T07:34:23;8.20;99.90
19483;DHT22;9882;51.166;6.992;2022-09-29T07:36:52;8.20;99.90
19483;DHT22;9882;51.166;6.992;2022-09-29T07:39:20;8.20;99.90
19483;DHT22;9882;51.166;6.992;2022-09-29T07:41:49;8.20;99.90
19483;DHT22;9882;51.166;6.992;2022-09-29T07:44:18;8.20;99.90
19483;DHT22;9882;51.166;6.992;2022-09-29T07:46:47;8.20;99.90
19483;DHT22;9882;51.166;6.992;2022-09-29T07:49:16;8.20;99.90
19483;DHT22;9882;51.166;6.992;2022-09-29T07:51:46;8.30;99.90
19483;DHT22;9882;51.166;6.992;2022-09-29T07:54:15;8.30;99.90
19483;DHT22;9882;51.166;6.992;2022-09-29T07:56:43;8.40;99.90
19483;DHT22;9882;51.166;6.992;2022-09-29T07:59:12;8.30;99.90
19483;DHT22;9882;51.166;6.992;2022-09-29T08:01:41;8.40;99.90
19483;DHT22;9882;51.166;6.992;2022-09-29T08:04:09;8.30;99.90
19483;DHT22;9882;51.166;6.992;2022-09-29T08:06:38;8.40;99.90
19483;DHT22;9882;51.166;6.992;2022-09-29T08:09:09;8.40;99.90
19483;DHT22;9882;51.166;6.992;2022-09-29T08:11:39;8.40;99.90
19483;DHT22;9882;51.166;6.992;2022-09-29T08:14:09;8.40;99.90
19483;DHT22;9882;51.166;6.992;2022-09-29T08:16:38;8.40;99.90
19483;DHT22;9882;51.166;6.992;2022-09-29T08:19:07;8.40;99.90
19483;DHT22;9882;51.166;6.992;2022-09-29T08:21:35;8.40;99.90
19483;DHT22;9882;51.166;6.992;2022-09-29T08:24:06;8.40;99.90
19483;DHT22;9882;51.166;6.992;2022-09-29T08:26:36;8.40;99.90
19483;DHT22;9882;51.166;6.992;2022-09-29T08:29:09;8.50;99.90
19483;DHT22;9882;51.166;6.992;2022-09-29T08:31:40;8.50;99.90
19483;DHT22;9882;51.166;6.992;2022-09-29T08:34:09;8.50;99.90
19483;DHT22;9882;51.166;6.992;2022-09-29T08:36:39;8.30;99.90
19483;DHT22;9882;51.166;6.992;2022-09-29T08:39:09;8.50;99.90
19483;DHT22;9882;51.166;6.992;2022-09-29T08:41:48;8.60;99.90
19483;DHT22;9882;51.166;6.992;2022-09-29T08:44:25;8.80;99.90
19483;DHT22;9882;51.166;6.992;2022-09-29T08:47:07;8.90;99.90
19483;DHT22;9882;51.166;6.992;2022-09-29T08:49:42;8.80;99.90
19483;DHT22;9882;51.166;6.992;2022-09-29T08:52:14;8.80;99.90
19483;DHT22;9882;51.166;6.992;2022-09-29T08:54:45;8.90;99.90
19483;DHT22;9882;51.166;6.992;2022-09-29T08:57:18;9.00;99.90
19483;DHT22;9882;51.166;6.992;2022-09-29T08:59:52;8.90;99.90
19483;DHT22;9882;51.166;6.992;2022-09-29T09:02:59;8.90;99.90
19483;DHT22;9882;51.166;6.992;2022-09-29T09:05:44;9.10;99.90
19483;DHT22;9882;51.166;6.992;2022-09-29T09:08:24;9.00;99.90
19483;DHT22;9882;51.166;6.992;2022-09-29T09:11:00;9.10;99.90
19483;DHT22;9882;51.166;6.992;2022-09-29T09:13:45;9.10;99.90
19483;DHT22;9882;51.166;6.992;2022-09-29T09:16:25;9.20;99.90
19483;DHT22;9882;51.166;6.992;2022-09-29T09:19:02;9.30;99.90
19483;DHT22;9882;51.166;6.992;2022-09-29T09:21:39;9.40;99.90
19483;DHT22;9882;51.166;6.992;2022-09-29T09:24:15;9.60;99.90
19483;DHT22;9882;51.166;6.992;2022-09-29T09:26:46;9.70;99.90
19483;DHT22;9882;51.166;6.992;2022-09-29T09:29:21;9.60;99.90
19483;DHT22;9882;51.166;6.992;2022-09-29T09:31:55;9.40;99.90
19483;DHT22;9882;51.166;6.992;2022-09-29T09:34:28;9.60;99.90
19483;DHT22;9882;51.166;6.992;2022-09-29T09:37:10;9.70;99.90
19483;DHT22;9882;51.166;6.992;2022-09-29T09:39:45;9.90;99.90
19483;DHT22;9882;51.166;6.992;2022-09-29T09:42:18;9.90;99.90
19483;DHT22;9882;51.166;6.992;2022-09-29T09:44:51;10.00;99.90
19483;DHT22;9882;51.166;6.992;2022-09-29T09:47:24;10.10;99.90
19483;DHT22;9882;51.166;6.992;2022-09-29T09:49:57;10.00;99.90
19483;DHT22;9882;51.166;6.992;2022-09-29T09:52:30;10.00;99.90
19483;DHT22;9882;51.166;6.992;2022-09-29T09:55:03;10.00;99.90
19483;DHT22;9882;51.166;6.992;2022-09-29T09:57:55;10.10;99.90
19483;DHT22;9882;51.166;6.992;2022-09-29T10:00:32;10.10;99.90
19483;DHT22;9882;51.166;6.992;2022-09-29T10:03:03;10.20;99.90
19483;DHT22;9882;51.166;6.992;2022-09-29T10:05:35;10.20;99.90
19483;DHT22;9882;51.166;6.992;2022-09-29T10:08:09;10.20;99.90
19483;DHT22;9882;51.166;6.992;2022-09-29T10:10:40;10.30;99.90
19483;DHT22;9882;51.166;6.992;2022-09-29T10:13:14;10.40;99.90
19483;DHT22;9882;51.166;6.992;2022-09-29T10:15:49;10.60;99.90
19483;DHT22;9882;51.166;6.992;2022-09-29T10:18:23;10.70;99.90
19483;DHT22;9882;51.166;6.992;2022-09-29T10:20:53;10.80;99.90
19483;DHT22;9882;51.166;6.992;2022-09-29T10:23:30;10.80;99.90
19483;DHT22;9882;51.166;6.992;2022-09-29T10:26:07;10.80;99.90
19483;DHT22;9882;51.166;6.992;2022-09-29T10:28:42;10.80;99.90
19483;DHT22;9882;51.166;6.992;2022-09-29T10:31:21;10.60;99.90
19483;DHT22;9882;51.166;6.992;2022-09-29T10:33:55;10.80;99.90
19483;DHT22;9882;51.166;6.992;2022-09-29T10:36:30;10.90;99.90
19483;DHT22;9882;51.166;6.992;2022-09-29T10:38:59;10.90;99.90
19483;DHT22;9882;51.166;6.992;2022-09-29T10:41:49;11.00;99.90
19483;DHT22;9882;51.166;6.992;2022-09-29T10:44:20;11.10;99.90
19483;DHT22;9882;51.166;6.992;2022-09-29T10:46:54;11.40;99.90
19483;DHT22;9882;51.166;6.992;2022-09-29T10:49:24;11.50;99.90
19483;DHT22;9882;51.166;6.992;2022-09-29T10:52:03;11.30;99.90
19483;DHT22;9882;51.166;6.992;2022-09-29T10:54:36;11.70;99.90
19483;DHT22;9882;51.166;6.992;2022-09-29T10:57:14;11.60;99.90
19483;DHT22;9882;51.166;6.992;2022-09-29T10:59:47;11.40;99.90
19483;DHT22;9882;51.166;6.992;2022-09-29T11:02:21;11.30;99.90
19483;DHT22;9882;51.166;6.992;2022-09-29T11:04:51;11.50;99.90
19483;DHT22;9882;51.166;6.992;2022-09-29T11:07:22;11.70;99.90
19483;DHT22;9882;51.166;6.992;2022-09-29T11:09:50;11.50;99.90
19483;DHT22;9882;51.166;6.992;2022-09-29T11:12:29;11.80;99.90
19483;DHT22;9882;51.166;6.992;2022-09-29T11:15:00;11.80;99.90
19483;DHT22;9882;51.166;6.992;2022-09-29T11:17:36;11.90;99.90
19483;DHT22;9882;51.166;6.992;2022-09-29T11:20:10;12.10;99.90
19483;DHT22;9882;51.166;6.992;2022-09-29T11:22:52;12.00;99.90
19483;DHT22;9882;51.166;6.992;2022-09-29T11:25:36;11.80;99.90
19483;DHT22;9882;51.166;6.992;2022-09-29T11:28:23;11.90;99.90
19483;DHT22;9882;51.166;6.992;2022-09-29T11:31:04;12.00;99.90
19483;DHT22;9882;51.166;6.992;2022-09-29T11:33:45;11.80;99.90
19483;DHT22;9882;51.166;6.992;2022-09-29T11:36:23;11.60;99.90
19483;DHT22;9882;51.166;6.992;2022-09-29T11:39:02;11.80;99.90
19483;DHT22;9882;51.166;6.992;2022-09-29T11:41:46;12.00;99.90
19483;DHT22;9882;51.166;6.992;2022-09-29T11:44:34;12.40;99.90
19483;DHT22;9882;51.166;6.992;2022-09-29T11:47:15;12.20;99.90
19483;DHT22;9882;51.166;6.992;2022-09-29T11:49:57;12.20;99.90
19483;DHT22;9882;51.166;6.992;2022-09-29T11:52:47;12.00;99.90
19483;DHT22;9882;51.166;6.992;2022-09-29T11:55:32;12.10;99.90
19483;DHT22;9882;51.166;6.992;2022-09-29T11:58:18;12.30;99.90
19483;DHT22;9882;51.166;6.992;2022-09-29T12:01:00;12.20;99.90
19483;DHT22;9882;51.166;6.992;2022-09-29T12:03:35;12.30;99.90
19483;DHT22;9882;51.166;6.992;2022-09-29T12:06:34;12.30;99.90
19483;DHT22;9882;51.166;6.992;2022-09-29T12:09:22;11.80;99.90
19483;DHT22;9882;51.166;6.992;2022-09-29T12:12:02;11.70;99.90
19483;DHT22;9882;51.166;6.992;2022-09-29T12:15:15;12.30;99.90
19483;DHT22;9882;51.166;6.992;2022-09-29T12:17:49;12.70;99.90
19483;DHT22;9882;51.166;6.992;2022-09-29T12:20:21;12.50;99.90
19483;DHT22;9882;51.166;6.992;2022-09-29T12:22:54;12.70;99.90
19483;DHT22;9882;51.166;6.992;2022-09-29T12:25:26;12.80;99.90
19483;DHT22;9882;51.166;6.992;2022-09-29T12:28:00;13.00;99.90
19483;DHT22;9882;51.166;6.992;2022-09-29T12:30:34;13.20;99.90
19483;DHT22;9882;51.166;6.992;2022-09-29T12:33:08;13.30;99.90
19483;DHT22;9882;51.166;6.992;2022-09-29T12:35:46;13.10;99.90
19483;DHT22;9882;51.166;6.992;2022-09-29T12:38:25;12.80;99.90
19483;DHT22;9882;51.166;6.992;2022-09-29T12:41:05;12.70;99.90
19483;DHT22;9882;51.166;6.992;2022-09-29T12:43:42;12.80;99.90
19483;DHT22;9882;51.166;6.992;2022-09-29T12:46:31;12.60;99.90
19483;DHT22;9882;51.166;6.992;2022-09-29T12:49:07;12.60;99.90
19483;DHT22;9882;51.166;6.992;2022-09-29T12:51:43;12.60;99.90
19483;DHT22;9882;51.166;6.992;2022-09-29T12:54:21;12.70;99.90
19483;DHT22;9882;51.166;6.992;2022-09-29T12:56:55;12.70;99.90
19483;DHT22;9882;51.166;6.992;2022-09-29T12:59:33;12.80;99.90
19483;DHT22;9882;51.166;6.992;2022-09-29T13:02:25;12.80;99.90
19483;DHT22;9882;51.166;6.992;2022-09-29T13:05:27;12.80;99.90
19483;DHT22;9882;51.166;6.992;2022-09-29T13:08:51;12.80;99.90
19483;DHT22;9882;51.166;6.992;2022-09-29T13:14:45;13.20;99.90
19483;DHT22;9882;51.166;6.992;2022-09-29T13:20:37;13.40;99.90
19483;DHT22;9882;51.166;6.992;2022-09-29T13:23:45;13.00;99.90
19483;DHT22;9882;51.166;6.992;2022-09-29T13:29:12;14.00;99.90
19483;DHT22;9882;51.166;6.992;2022-09-29T13:31:44;14.20;99.90
19483;DHT22;9882;51.166;6.992;2022-09-29T13:34:22;14.40;99.90
19483;DHT22;9882;51.166;6.992;2022-09-29T13:37:04;14.50;99.90
19483;DHT22;9882;51.166;6.992;2022-09-29T13:39:34;14.50;99.90
19483;DHT22;9882;51.166;6.992;2022-09-29T13:42:36;14.60;99.90
19483;DHT22;9882;51.166;6.992;2022-09-29T13:54:36;16.70;99.90
19483;DHT22;9882;51.166;6.992;2022-09-29T13:57:26;17.20;99.90
19483;DHT22;9882;51.166;6.992;2022-09-29T14:00:22;17.40;99.90
19483;DHT22;9882;51.166;6.992;2022-09-29T14:03:25;18.00;99.90
19483;DHT22;9882;51.166;6.992;2022-09-29T14:06:06;18.40;99.90
19483;DHT22;9882;51.166;6.992;2022-09-29T14:08:59;18.80;99.90
19483;DHT22;9882;51.166;6.992;2022-09-29T14:11:33;19.10;99.90
19483;DHT22;9882;51.166;6.992;2022-09-29T14:14:05;18.80;99.90
19483;DHT22;9882;51.166;6.992;2022-09-29T14:16:50;18.40;99.90
19483;DHT22;9882;51.166;6.992;2022-09-29T14:19:38;18.60;99.90
19483;DHT22;9882;51.166;6.992;2022-09-29T14:22:54;18.70;99.90
19483;DHT22;9882;51.166;6.992;2022-09-29T14:25:29;18.10;99.90
19483;DHT22;9882;51.166;6.992;2022-09-29T14:28:02;18.30;99.90
19483;DHT22;9882;51.166;6.992;2022-09-29T14:30:41;18.70;99.90
19483;DHT22;9882;51.166;6.992;2022-09-29T14:33:16;18.90;99.90
19483;DHT22;9882;51.166;6.992;2022-09-29T14:35:54;18.90;99.90
19483;DHT22;9882;51.166;6.992;2022-09-29T14:38:31;18.60;99.90
19483;DHT22;9882;51.166;6.992;2022-09-29T14:41:01;19.30;99.90
19483;DHT22;9882;51.166;6.992;2022-09-29T14:43:37;19.00;99.90
19483;DHT22;9882;51.166;6.992;2022-09-29T14:46:25;19.10;99.90
19483;DHT22;9882;51.166;6.992;2022-09-29T14:49:45;19.10;99.90
19483;DHT22;9882;51.166;6.992;2022-09-29T14:52:42;19.10;99.90
19483;DHT22;9882;51.166;6.992;2022-09-29T14:55:18;19.80;99.90
19483;DHT22;9882;51.166;6.992;2022-09-29T14:58:02;19.30;99.90
19483;DHT22;9882;51.166;6.992;2022-09-29T15:00:48;18.70;99.90
19483;DHT22;9882;51.166;6.992;2022-09-29T15:03:25;18.80;99.90
19483;DHT22;9882;51.166;6.992;2022-09-29T15:06:10;19.40;99.90
19483;DHT22;9882;51.166;6.992;2022-09-29T15:08:40;19.90;99.90
19483;DHT22;9882;51.166;6.992;2022-09-29T15:11:41;19.80;99.90
19483;DHT22;9882;51.166;6.992;2022-09-29T15:14:21;19.50;99.90
19483;DHT22;9882;51.166;6.992;2022-09-29T15:17:03;19.60;99.90
19483;DHT22;9882;51.166;6.992;2022-09-29T15:19:42;19.70;99.90
19483;DHT22;9882;51.166;6.992;2022-09-29T15:25:19;20.20;99.90
19483;DHT22;9882;51.166;6.992;2022-09-29T15:27:52;20.40;99.90
19483;DHT22;9882;51.166;6.992;2022-09-29T15:30:22;20.50;99.90
19483;DHT22;9882;51.166;6.992;2022-09-29T15:33:06;20.00;99.90
19483;DHT22;9882;51.166;6.992;2022-09-29T15:35:44;19.90;99.90
19483;DHT22;9882;51.166;6.992;2022-09-29T15:38:28;19.30;99.90
19483;DHT22;9882;51.166;6.992;2022-09-29T15:41:01;19.40;99.90
19483;DHT22;9882;51.166;6.992;2022-09-29T15:43:39;20.10;99.90
19483;DHT22;9882;51.166;6.992;2022-09-29T15:46:16;19.60;99.90
19483;DHT22;9882;51.166;6.992;2022-09-29T15:49:10;18.70;99.90
19483;DHT22;9882;51.166;6.992;2022-09-29T15:51:40;18.40;99.90
19483;DHT22;9882;51.166;6.992;2022-09-29T15:54:11;17.90;99.90
19483;DHT22;9882;51.166;6.992;2022-09-29T15:56:41;17.00;99.90
19483;DHT22;9882;51.166;6.992;2022-09-29T15:59:43;16.80;99.90
19483;DHT22;9882;51.166;6.992;2022-09-29T16:02:25;16.90;99.90
19483;DHT22;9882;51.166;6.992;2022-09-29T16:05:02;16.10;99.90
19483;DHT22;9882;51.166;6.992;2022-09-29T16:07:33;16.20;99.90
19483;DHT22;9882;51.166;6.992;2022-09-29T16:10:07;15.80;99.90
19483;DHT22;9882;51.166;6.992;2022-09-29T16:12:47;16.30;99.90
19483;DHT22;9882;51.166;6.992;2022-09-29T16:15:19;16.10;99.90
19483;DHT22;9882;51.166;6.992;2022-09-29T16:17:49;16.10;99.90
19483;DHT22;9882;51.166;6.992;2022-09-29T16:20:25;15.60;99.90
19483;DHT22;9882;51.166;6.992;2022-09-29T16:22:54;15.50;99.90
19483;DHT22;9882;51.166;6.992;2022-09-29T16:25:25;15.60;99.90
19483;DHT22;9882;51.166;6.992;2022-09-29T16:27:55;15.40;99.90
19483;DHT22;9882;51.166;6.992;2022-09-29T16:30:27;15.50;99.90
19483;DHT22;9882;51.166;6.992;2022-09-29T16:33:02;15.70;99.90
19483;DHT22;9882;51.166;6.992;2022-09-29T16:35:45;15.50;99.90
19483;DHT22;9882;51.166;6.992;2022-09-29T16:38:19;15.90;99.90
19483;DHT22;9882;51.166;6.992;2022-09-29T16:40:52;16.00;99.90
19483;DHT22;9882;51.166;6.992;2022-09-29T16:43:25;16.00;99.90
19483;DHT22;9882;51.166;6.992;2022-09-29T16:45:56;16.10;99.90
19483;DHT22;9882;51.166;6.992;2022-09-29T16:48:29;16.10;99.90
19483;DHT22;9882;51.166;6.992;2022-09-29T16:51:11;16.10;99.90
19483;DHT22;9882;51.166;6.992;2022-09-29T16:53:57;16.10;99.90
19483;DHT22;9882;51.166;6.992;2022-09-29T16:56:29;16.00;99.90
19483;DHT22;9882;51.166;6.992;2022-09-29T16:59:07;15.90;99.90
19483;DHT22;9882;51.166;6.992;2022-09-29T17:01:38;15.90;99.90
19483;DHT22;9882;51.166;6.992;2022-09-29T17:04:08;15.90;99.90
19483;DHT22;9882;51.166;6.992;2022-09-29T17:06:43;15.70;99.90
19483;DHT22;9882;51.166;6.992;2022-09-29T17:09:17;15.70;99.90
19483;DHT22;9882;51.166;6.992;2022-09-29T17:11:46;15.60;99.90
19483;DHT22;9882;51.166;6.992;2022-09-29T17:14:16;15.60;99.90
19483;DHT22;9882;51.166;6.992;2022-09-29T17:16:48;15.50;99.90
19483;DHT22;9882;51.166;6.992;2022-09-29T17:19:18;15.40;99.90
19483;DHT22;9882;51.166;6.992;2022-09-29T17:21:52;15.40;99.90
19483;DHT22;9882;51.166;6.992;2022-09-29T17:24:22;15.30;99.90
19483;DHT22;9882;51.166;6.992;2022-09-29T17:26:51;15.30;99.90
19483;DHT22;9882;51.166;6.992;2022-09-29T17:29:37;15.30;99.90
19483;DHT22;9882;51.166;6.992;2022-09-29T17:32:11;15.20;99.90
19483;DHT22;9882;51.166;6.992;2022-09-29T17:34:40;15.20;99.90
19483;DHT22;9882;51.166;6.992;2022-09-29T17:37:10;15.10;99.90
19483;DHT22;9882;51.166;6.992;2022-09-29T17:39:45;15.00;99.90
19483;DHT22;9882;51.166;6.992;2022-09-29T17:42:14;14.90;99.90
19483;DHT22;9882;51.166;6.992;2022-09-29T17:44:44;14.90;99.90
19483;DHT22;9882;51.166;6.992;2022-09-29T17:47:14;14.80;99.90
19483;DHT22;9882;51.166;6.992;2022-09-29T17:49:53;14.80;99.90
19483;DHT22;9882;51.166;6.992;2022-09-29T17:52:23;14.80;99.90
19483;DHT22;9882;51.166;6.992;2022-09-29T17:54:52;14.80;99.90
19483;DHT22;9882;51.166;6.992;2022-09-29T17:57:24;14.70;99.90
19483;DHT22;9882;51.166;6.992;2022-09-29T17:59:54;14.70;99.90
19483;DHT22;9882;51.166;6.992;2022-09-29T18:02:25;14.60;99.90
19483;DHT22;9882;51.166;6.992;2022-09-29T18:04:54;14.60;99.90
19483;DHT22;9882;51.166;6.992;2022-09-29T18:07:24;14.50;99.90
19483;DHT22;9882;51.166;6.992;2022-09-29T18:09:53;14.50;99.90
19483;DHT22;9882;51.166;6.992;2022-09-29T18:12:22;14.40;99.90
19483;DHT22;9882;51.166;6.992;2022-09-29T18:14:51;14.40;99.90
19483;DHT22;9882;51.166;6.992;2022-09-29T18:17:20;14.30;99.90
19483;DHT22;9882;51.166;6.992;2022-09-29T18:19:49;14.30;99.90
19483;DHT22;9882;51.166;6.992;2022-09-29T18:22:18;14.30;99.90
19483;DHT22;9882;51.166;6.992;2022-09-29T18:24:49;14.20;99.90
19483;DHT22;9882;51.166;6.992;2022-09-29T18:27:18;14.10;99.90
19483;DHT22;9882;51.166;6.992;2022-09-29T18:29:46;14.10;99.90
19483;DHT22;9882;51.166;6.992;2022-09-29T18:36:46;14.10;99.90
19483;DHT22;9882;51.166;6.992;2022-09-29T18:39:14;13.90;99.90
19483;DHT22;9882;51.166;6.992;2022-09-29T18:41:44;13.90;99.90
19483;DHT22;9882;51.166;6.992;2022-09-29T18:44:14;13.80;99.90
19483;DHT22;9882;51.166;6.992;2022-09-29T18:46:43;13.80;99.90
19483;DHT22;9882;51.166;6.992;2022-09-29T18:49:14;13.80;99.90
19483;DHT22;9882;51.166;6.992;2022-09-29T18:51:43;13.70;99.90
19483;DHT22;9882;51.166;6.992;2022-09-29T18:54:11;13.70;99.90
19483;DHT22;9882;51.166;6.992;2022-09-29T18:56:41;13.70;99.90
19483;DHT22;9882;51.166;6.992;2022-09-29T18:59:11;13.70;99.90
19483;DHT22;9882;51.166;6.992;2022-09-29T19:01:40;13.60;99.90
19483;DHT22;9882;51.166;6.992;2022-09-29T19:04:09;13.60;99.90
19483;DHT22;9882;51.166;6.992;2022-09-29T19:06:37;13.60;99.90
19483;DHT22;9882;51.166;6.992;2022-09-29T19:09:06;13.50;99.90
19483;DHT22;9882;51.166;6.992;2022-09-29T19:11:34;13.50;99.90
19483;DHT22;9882;51.166;6.992;2022-09-29T19:14:03;13.50;99.90
19483;DHT22;9882;51.166;6.992;2022-09-29T19:16:33;13.40;99.90
19483;DHT22;9882;51.166;6.992;2022-09-29T19:19:01;13.40;99.90
19483;DHT22;9882;51.166;6.992;2022-09-29T19:21:30;13.40;99.90
19483;DHT22;9882;51.166;6.992;2022-09-29T19:23:59;13.30;99.90
19483;DHT22;9882;51.166;6.992;2022-09-29T19:26:28;13.30;99.90
19483;DHT22;9882;51.166;6.992;2022-09-29T19:28:57;13.30;99.90
19483;DHT22;9882;51.166;6.992;2022-09-29T19:31:25;13.30;99.90
19483;DHT22;9882;51.166;6.992;2022-09-29T19:33:58;13.30;99.90
19483;DHT22;9882;51.166;6.992;2022-09-29T19:36:27;13.20;99.90
19483;DHT22;9882;51.166;6.992;2022-09-29T19:38:55;13.20;99.90
19483;DHT22;9882;51.166;6.992;2022-09-29T19:41:24;13.10;99.90
19483;DHT22;9882;51.166;6.992;2022-09-29T19:43:52;13.10;99.90
19483;DHT22;9882;51.166;6.992;2022-09-29T19:46:21;13.00;99.90
19483;DHT22;9882;51.166;6.992;2022-09-29T19:48:49;13.00;99.90
19483;DHT22;9882;51.166;6.992;2022-09-29T19:51:19;13.00;99.90
19483;DHT22;9882;51.166;6.992;2022-09-29T19:54:06;13.00;99.90
19483;DHT22;9882;51.166;6.992;2022-09-29T19:56:39;12.90;99.90
19483;DHT22;9882;51.166;6.992;2022-09-29T19:59:09;12.90;99.90
19483;DHT22;9882;51.166;6.992;2022-09-29T20:01:37;12.90;99.90
19483;DHT22;9882;51.166;6.992;2022-09-29T20:04:06;12.80;99.90
19483;DHT22;9882;51.166;6.992;2022-09-29T20:06:36;12.80;99.90
19483;DHT22;9882;51.166;6.992;2022-09-29T20:09:06;12.80;99.90
19483;DHT22;9882;51.166;6.992;2022-09-29T20:11:35;12.80;99.90
19483;DHT22;9882;51.166;6.992;2022-09-29T20:14:05;12.70;99.90
19483;DHT22;9882;51.166;6.992;2022-09-29T20:16:37;12.70;99.90
19483;DHT22;9882;51.166;6.992;2022-09-29T20:19:09;12.60;99.90
19483;DHT22;9882;51.166;6.992;2022-09-29T20:21:41;12.60;99.90
19483;DHT22;9882;51.166;6.992;2022-09-29T20:24:12;12.60;99.90
19483;DHT22;9882;51.166;6.992;2022-09-29T20:26:41;12.60;99.90
19483;DHT22;9882;51.166;6.992;2022-09-29T20:29:10;12.50;99.90
19483;DHT22;9882;51.166;6.992;2022-09-29T20:31:39;12.50;99.90
19483;DHT22;9882;51.166;6.992;2022-09-29T20:34:08;12.50;99.90
19483;DHT22;9882;51.166;6.992;2022-09-29T20:36:37;12.50;99.90
19483;DHT22;9882;51.166;6.992;2022-09-29T20:39:08;12.50;99.90
19483;DHT22;9882;51.166;6.992;2022-09-29T20:41:36;12.40;99.90
19483;DHT22;9882;51.166;6.992;2022-09-29T20:44:05;12.40;99.90
19483;DHT22;9882;51.166;6.992;2022-09-29T20:46:33;12.40;99.90
19483;DHT22;9882;51.166;6.992;2022-09-29T20:49:02;12.30;99.90
19483;DHT22;9882;51.166;6.992;2022-09-29T20:51:31;12.30;99.90
19483;DHT22;9882;51.166;6.992;2022-09-29T20:54:03;12.30;99.90
19483;DHT22;9882;51.166;6.992;2022-09-29T20:56:33;12.20;99.90
19483;DHT22;9882;51.166;6.992;2022-09-29T20:59:09;12.20;99.90
19483;DHT22;9882;51.166;6.992;2022-09-29T21:01:38;12.20;99.90
19483;DHT22;9882;51.166;6.992;2022-09-29T21:04:09;12.10;99.90
19483;DHT22;9882;51.166;6.992;2022-09-29T21:06:40;12.20;99.90
19483;DHT22;9882;51.166;6.992;2022-09-29T21:09:10;12.10;99.90
19483;DHT22;9882;51.166;6.992;2022-09-29T21:11:45;12.10;99.90
19483;DHT22;9882;51.166;6.992;2022-09-29T21:14:19;12.00;99.90
19483;DHT22;9882;51.166;6.992;2022-09-29T21:16:50;12.00;99.90
19483;DHT22;9882;51.166;6.992;2022-09-29T21:19:21;12.00;99.90
19483;DHT22;9882;51.166;6.992;2022-09-29T21:21:52;12.00;99.90
19483;DHT22;9882;51.166;6.992;2022-09-29T21:24:20;12.00;99.90
19483;DHT22;9882;51.166;6.992;2022-09-29T21:26:50;11.90;99.90
19483;DHT22;9882;51.166;6.992;2022-09-29T21:29:18;11.90;99.90
19483;DHT22;9882;51.166;6.992;2022-09-29T21:31:47;11.80;99.90
19483;DHT22;9882;51.166;6.992;2022-09-29T21:34:21;11.80;99.90
19483;DHT22;9882;51.166;6.992;2022-09-29T21:36:49;11.80;99.90
19483;DHT22;9882;51.166;6.992;2022-09-29T21:39:18;11.80;99.90
19483;DHT22;9882;51.166;6.992;2022-09-29T21:41:46;11.70;99.90
19483;DHT22;9882;51.166;6.992;2022-09-29T21:44:20;11.70;99.90
19483;DHT22;9882;51.166;6.992;2022-09-29T21:46:50;11.70;99.90
19483;DHT22;9882;51.166;6.992;2022-09-29T21:49:19;11.70;99.90
19483;DHT22;9882;51.166;6.992;2022-09-29T21:51:49;11.70;99.90
19483;DHT22;9882;51.166;6.992;2022-09-29T21:54:19;11.70;99.90
19483;DHT22;9882;51.166;6.992;2022-09-29T21:56:48;11.70;99.90
19483;DHT22;9882;51.166;6.992;2022-09-29T21:59:20;11.60;99.90
19483;DHT22;9882;51.166;6.992;2022-09-29T22:01:49;11.60;99.90
19483;DHT22;9882;51.166;6.992;2022-09-29T22:04:18;11.60;99.90
19483;DHT22;9882;51.166;6.992;2022-09-29T22:06:47;11.50;99.90
19483;DHT22;9882;51.166;6.992;2022-09-29T22:09:17;11.50;99.90
19483;DHT22;9882;51.166;6.992;2022-09-29T22:11:47;11.50;99.90
19483;DHT22;9882;51.166;6.992;2022-09-29T22:14:21;11.50;99.90